Time;durP1;ratioP1;P1;durP2;ratioP2;P2;SDS_P1;SDS_P2;PMS_P1;PMS_P2;Temp;Humidity;BMP_temperature;BMP_pressure;BME280_temperature;BME280_humidity;BME280_pressure;Samples;Min_cycle;Max_cycle;Signal;HPM_P1;HPM_P2
2023/01/15 00:01:30;;;;;;;1.30;1.30;;;10.50;99.90;;;;;;5074020;28;20036;-69
2023/01/15 00:03:57;;;;;;;0.32;0.32;;;10.50;99.90;;;;;;5073647;28;20054;-70
2023/01/15 00:06:24;;;;;;;0.32;0.32;;;10.40;99.90;;;;;;5073766;28;20040;-69
2023/01/15 00:08:51;;;;;;;0.40;0.40;;;10.40;99.90;;;;;;5073720;28;20449;-70
2023/01/15 00:11:17;;;;;;;0.30;0.30;;;10.40;99.90;;;;;;5072428;28;20369;-70
2023/01/15 00:13:43;;;;;;;0.35;0.35;;;10.30;99.90;;;;;;5073542;28;20105;-69
2023/01/15 00:16:15;;;;;;;0.30;0.30;;;10.20;99.90;;;;;;5072362;28;20054;-69
2023/01/15 00:18:40;;;;;;;20.77;2.90;;;10.20;99.90;;;;;;5073790;28;20070;-68
2023/01/15 00:21:10;;;;;;;2.63;1.10;;;10.10;99.90;;;;;;5073452;28;20032;-69
2023/01/15 00:29:06;;;;;;;9.07;2.40;;;10.00;99.90;;;;;;5073839;28;20111;-71
2023/01/15 00:31:34;;;;;;;5.10;1.30;;;10.00;99.90;;;;;;5073467;28;20111;-70
2023/01/15 00:34:00;;;;;;;4.40;1.10;;;10.00;99.90;;;;;;5073330;28;20094;-69
2023/01/15 00:36:25;;;;;;;11.18;1.30;;;10.00;99.90;;;;;;5073510;28;20017;-70
2023/01/15 00:38:51;;;;;;;6.05;1.27;;;10.00;99.90;;;;;;5073469;28;20020;-69
2023/01/15 00:41:17;;;;;;;5.68;1.30;;;9.90;99.90;;;;;;5072387;28;20382;-69
2023/01/15 00:43:44;;;;;;;5.95;1.90;;;9.80;99.90;;;;;;5073345;28;20012;-70
2023/01/15 00:46:10;;;;;;;3.97;1.23;;;9.90;99.90;;;;;;5073758;28;20031;-69
2023/01/15 00:48:36;;;;;;;15.73;2.00;;;9.80;99.90;;;;;;5073546;28;20040;-69
2023/01/15 00:51:02;;;;;;;8.18;1.33;;;9.80;99.90;;;;;;5073214;28;20107;-70
2023/01/15 00:53:28;;;;;;;8.05;1.48;;;9.80;99.90;;;;;;5073135;28;20496;-70
2023/01/15 00:55:53;;;;;;;10.00;1.58;;;9.80;99.90;;;;;;5073371;28;20033;-70
2023/01/15 00:58:19;;;;;;;3.25;1.08;;;9.70;99.90;;;;;;5073028;28;20484;-70
2023/01/15 01:00:45;;;;;;;7.85;1.35;;;9.80;99.90;;;;;;5072753;28;20032;-70
2023/01/15 01:03:11;;;;;;;7.32;1.85;;;9.80;99.90;;;;;;5072735;28;20055;-69
2023/01/15 01:05:36;;;;;;;15.43;1.77;;;9.80;99.90;;;;;;5072808;28;20079;-70
2023/01/15 01:08:02;;;;;;;3.90;1.20;;;9.70;99.90;;;;;;5072718;28;20033;-70
2023/01/15 01:10:28;;;;;;;15.77;2.17;;;9.80;99.90;;;;;;5072784;28;20082;-70
2023/01/15 01:12:54;;;;;;;5.57;1.50;;;9.80;99.90;;;;;;5072544;28;20030;-70
2023/01/15 01:15:21;;;;;;;4.32;1.13;;;9.80;99.90;;;;;;5072333;28;20562;-68
2023/01/15 01:17:47;;;;;;;7.38;2.47;;;9.80;99.90;;;;;;5072873;28;20476;-70
2023/01/15 01:20:14;;;;;;;7.28;1.02;;;9.70;99.90;;;;;;5072900;28;20028;-70
2023/01/15 01:22:40;;;;;;;13.48;1.83;;;9.70;99.90;;;;;;5072668;28;20032;-68
2023/01/15 01:25:07;;;;;;;4.32;1.27;;;9.70;99.90;;;;;;5073195;28;20020;-69
2023/01/15 01:27:32;;;;;;;4.97;1.20;;;9.60;99.90;;;;;;5072441;28;20043;-70
2023/01/15 01:29:58;;;;;;;6.28;1.65;;;9.60;99.90;;;;;;5074121;28;20020;-70
2023/01/15 01:32:24;;;;;;;6.50;1.10;;;9.60;99.90;;;;;;5074961;28;20497;-70
2023/01/15 01:34:49;;;;;;;5.15;1.60;;;9.60;99.90;;;;;;5074636;28;20021;-70
2023/01/15 01:37:15;;;;;;;9.85;1.38;;;9.60;99.90;;;;;;5075130;28;20028;-71
2023/01/15 01:39:41;;;;;;;9.20;1.95;;;9.50;99.90;;;;;;5072662;28;20538;-70
2023/01/15 01:42:16;;;;;;;9.27;1.80;;;9.60;99.90;;;;;;5072317;28;20056;-68
2023/01/15 01:44:42;;;;;;;8.73;1.75;;;9.60;99.90;;;;;;5071938;28;20078;-70
2023/01/15 01:47:14;;;;;;;6.03;1.58;;;9.70;99.90;;;;;;5072070;28;20040;-69
2023/01/15 01:49:42;;;;;;;4.68;1.33;;;9.80;99.90;;;;;;5071897;28;20043;-68
2023/01/15 01:52:15;;;;;;;7.85;1.15;;;9.80;99.90;;;;;;5072226;28;20032;-70
2023/01/15 01:54:45;;;;;;;5.55;1.25;;;9.70;99.90;;;;;;5071282;28;20013;-69
2023/01/15 01:57:11;;;;;;;11.40;1.55;;;9.60;99.90;;;;;;5071751;28;20031;-69
2023/01/15 01:59:37;;;;;;;9.65;1.60;;;9.70;99.90;;;;;;5071876;28;20112;-69
2023/01/15 02:02:04;;;;;;;4.93;1.17;;;9.60;99.90;;;;;;5071701;28;20029;-70
2023/01/15 02:04:30;;;;;;;11.45;1.38;;;9.60;99.90;;;;;;5071304;28;20129;-70
2023/01/15 02:06:59;;;;;;;10.68;1.65;;;9.60;99.90;;;;;;5071462;28;20029;-70
2023/01/15 02:09:24;;;;;;;8.40;1.50;;;9.50;99.90;;;;;;5071595;28;20112;-70
2023/01/15 02:11:55;;;;;;;6.88;1.40;;;9.40;99.90;;;;;;5071556;28;20108;-70
2023/01/15 02:14:24;;;;;;;4.40;1.73;;;9.30;99.90;;;;;;5069990;28;20515;-70
2023/01/15 02:17:14;;;;;;;8.18;1.48;;;9.30;99.90;;;;;;5071474;28;20113;-69
2023/01/15 02:20:21;;;;;;;6.82;1.13;;;9.30;99.90;;;;;;5071595;28;20017;-69
2023/01/15 02:22:49;;;;;;;5.18;1.02;;;9.20;99.90;;;;;;5071268;28;20052;-70
2023/01/15 02:25:28;;;;;;;2.45;0.80;;;9.20;99.90;;;;;;5071229;28;20029;-69
2023/01/15 02:28:33;;;;;;;9.57;1.17;;;9.00;99.90;;;;;;5071391;28;20028;-69
2023/01/15 02:31:16;;;;;;;4.20;1.02;;;8.90;99.90;;;;;;5069825;28;20044;-69
2023/01/15 02:33:48;;;;;;;6.85;1.08;;;8.90;99.90;;;;;;5069738;28;20035;-69
2023/01/15 02:36:18;;;;;;;6.75;1.08;;;8.90;99.90;;;;;;5071482;28;20020;-69
2023/01/15 02:38:48;;;;;;;6.05;1.48;;;8.80;99.90;;;;;;5071337;28;20024;-69
2023/01/15 02:41:16;;;;;;;9.70;1.02;;;8.70;99.90;;;;;;5071331;28;20027;-68
2023/01/15 02:43:46;;;;;;;5.57;1.05;;;8.70;99.90;;;;;;5071272;28;20032;-69
2023/01/15 02:46:14;;;;;;;4.95;1.25;;;8.50;99.90;;;;;;5070972;28;20564;-68
2023/01/15 02:48:42;;;;;;;5.53;1.52;;;8.40;99.90;;;;;;5069667;28;20032;-68
2023/01/15 02:51:14;;;;;;;8.52;1.23;;;8.30;99.90;;;;;;5071017;28;20027;-69
2023/01/15 02:53:43;;;;;;;3.25;0.73;;;8.40;99.90;;;;;;5071009;28;20032;-69
2023/01/15 02:56:13;;;;;;;3.50;0.95;;;8.40;99.90;;;;;;5069753;28;20032;-68
2023/01/15 02:58:41;;;;;;;9.63;1.52;;;8.40;99.90;;;;;;5071009;28;20558;-69
2023/01/15 03:01:12;;;;;;;6.38;1.33;;;8.30;99.90;;;;;;5070924;28;20500;-69
2023/01/15 03:03:50;;;;;;;5.50;1.30;;;8.20;99.90;;;;;;5070839;28;20365;-69
2023/01/15 03:06:40;;;;;;;1.85;0.90;;;8.20;99.90;;;;;;5073897;28;20523;-68
2023/01/15 03:09:07;;;;;;;2.90;0.95;;;8.20;99.90;;;;;;5074880;28;20036;-69
2023/01/15 03:11:37;;;;;;;5.53;1.63;;;8.20;99.90;;;;;;5074970;28;20031;-69
2023/01/15 03:14:11;;;;;;;5.40;1.38;;;8.20;99.90;;;;;;5074921;28;20040;-69
2023/01/15 03:16:44;;;;;;;10.20;1.50;;;8.10;99.90;;;;;;5074898;28;20036;-69
2023/01/15 03:19:30;;;;;;;10.38;1.40;;;8.00;99.90;;;;;;5074889;28;20117;-69
2023/01/15 03:22:03;;;;;;;5.53;1.65;;;8.10;99.90;;;;;;5074942;28;20070;-69
2023/01/15 03:24:36;;;;;;;4.50;1.08;;;8.10;99.90;;;;;;5075078;28;20158;-70
2023/01/15 03:27:02;;;;;;;9.98;1.50;;;8.00;99.90;;;;;;5074788;28;20473;-70
2023/01/15 03:29:33;;;;;;;8.57;1.40;;;8.00;99.90;;;;;;5074347;28;20477;-69
2023/01/15 03:32:00;;;;;;;11.27;1.90;;;8.10;99.90;;;;;;5074615;28;20044;-68
2023/01/15 03:34:32;;;;;;;4.93;1.45;;;7.90;99.90;;;;;;5073256;28;20078;-68
2023/01/15 03:36:58;;;;;;;11.95;2.88;;;8.00;99.90;;;;;;5074407;28;20550;-69
2023/01/15 03:39:23;;;;;;;10.70;2.17;;;8.00;99.90;;;;;;5074233;28;20029;-69
2023/01/15 03:42:10;;;;;;;7.90;1.35;;;8.10;99.90;;;;;;5074493;28;20035;-69
2023/01/15 03:44:44;;;;;;;7.82;1.33;;;8.10;99.90;;;;;;5074358;28;20377;-69
2023/01/15 03:47:32;;;;;;;9.65;1.52;;;8.10;99.90;;;;;;5074431;28;20040;-69
2023/01/15 03:50:12;;;;;;;9.45;2.45;;;8.10;99.90;;;;;;5074177;28;20492;-69
2023/01/15 03:53:04;;;;;;;3.85;1.10;;;8.00;99.90;;;;;;5074629;28;20576;-69
2023/01/15 03:55:58;;;;;;;9.05;1.27;;;7.90;99.90;;;;;;5069967;28;20028;-70
2023/01/15 03:58:29;;;;;;;15.60;1.98;;;7.90;99.90;;;;;;5074028;28;20075;-69
2023/01/15 04:00:59;;;;;;;8.07;1.10;;;7.90;99.90;;;;;;5074049;28;20477;-69
2023/01/15 04:03:27;;;;;;;3.63;1.08;;;7.90;99.90;;;;;;5073641;28;20020;-70
2023/01/15 04:05:56;;;;;;;2.60;1.10;;;8.00;99.90;;;;;;5073925;28;20027;-69
2023/01/15 04:08:23;;;;;;;6.68;1.50;;;8.00;99.90;;;;;;5073753;28;20044;-69
2023/01/15 04:11:00;;;;;;;13.60;2.83;;;8.00;99.90;;;;;;5073913;28;20237;-70
2023/01/15 04:13:26;;;;;;;11.68;1.77;;;8.20;99.90;;;;;;5073989;28;20032;-69
2023/01/15 04:15:53;;;;;;;6.28;1.50;;;8.10;99.90;;;;;;5072009;28;20400;-69
2023/01/15 04:18:19;;;;;;;6.20;1.30;;;8.10;99.90;;;;;;5073802;28;20031;-69
2023/01/15 04:20:45;;;;;;;4.95;1.30;;;7.80;99.90;;;;;;5073543;28;20028;-69
2023/01/15 04:23:11;;;;;;;9.90;1.88;;;7.70;99.90;;;;;;5073507;28;20494;-70
2023/01/15 04:25:38;;;;;;;8.10;1.63;;;8.90;99.90;;;;;;5073440;28;20107;-69
2023/01/15 04:28:04;;;;;;;3.40;1.00;;;9.00;99.90;;;;;;5073336;28;20044;-69
2023/01/15 04:30:30;;;;;;;7.45;1.67;;;9.10;99.90;;;;;;5073325;28;20025;-69
2023/01/15 04:32:55;;;;;;;7.10;2.25;;;9.10;99.90;;;;;;5073164;28;20020;-70
2023/01/15 04:35:21;;;;;;;15.23;2.20;;;9.10;99.90;;;;;;5073253;28;20020;-69
2023/01/15 04:37:47;;;;;;;7.93;1.77;;;9.10;99.90;;;;;;5071999;28;20511;-69
2023/01/15 04:44:05;;;;;;;15.60;1.63;;;9.00;99.90;;;;;;5073346;28;20017;-69
2023/01/15 04:45:44;;;;;;;12.35;1.42;;;9.00;99.90;;;;;;5073427;28;20447;-69
2023/01/15 04:48:11;;;;;;;3.35;1.70;;;9.00;99.90;;;;;;5071676;28;20089;-69
2023/01/15 04:50:37;;;;;;;8.80;1.65;;;9.00;99.90;;;;;;5073017;28;20465;-69
2023/01/15 04:53:03;;;;;;;6.40;1.20;;;9.10;99.90;;;;;;5071759;28;20056;-69
2023/01/15 04:55:29;;;;;;;9.68;2.03;;;9.20;99.90;;;;;;5073200;28;20481;-69
2023/01/15 04:57:54;;;;;;;15.40;2.30;;;9.20;99.90;;;;;;5072073;28;20078;-69
2023/01/15 05:00:21;;;;;;;12.95;1.77;;;9.20;99.90;;;;;;5070678;28;20043;-68
2023/01/15 05:02:48;;;;;;;8.85;1.88;;;9.20;99.90;;;;;;5051540;28;20033;-69
2023/01/15 05:05:14;;;;;;;12.93;2.20;;;9.30;99.90;;;;;;5052941;28;20017;-69
2023/01/15 05:07:39;;;;;;;8.43;1.45;;;9.50;99.90;;;;;;5054006;28;20043;-69
2023/01/15 05:10:05;;;;;;;11.45;1.73;;;9.50;99.90;;;;;;5056010;28;20025;-69
2023/01/15 05:12:31;;;;;;;11.80;2.35;;;9.50;99.90;;;;;;5054384;28;20537;-69
2023/01/15 05:14:57;;;;;;;12.60;1.98;;;9.40;99.90;;;;;;5051555;28;20055;-69
2023/01/15 05:17:22;;;;;;;5.80;1.65;;;9.40;99.90;;;;;;5051227;28;20029;-69
2023/01/15 05:19:48;;;;;;;6.22;1.65;;;9.50;99.90;;;;;;5052711;28;20558;-69
2023/01/15 05:22:14;;;;;;;6.00;1.35;;;9.50;99.90;;;;;;5052555;28;20637;-69
2023/01/15 05:24:39;;;;;;;10.20;1.65;;;9.50;99.90;;;;;;5052700;28;20450;-69
2023/01/15 05:27:05;;;;;;;13.75;1.50;;;9.70;99.90;;;;;;5052328;28;20079;-69
2023/01/15 05:29:31;;;;;;;8.73;1.55;;;9.70;99.90;;;;;;5051640;28;20524;-69
2023/01/15 05:31:57;;;;;;;7.95;1.92;;;9.70;99.90;;;;;;5052300;28;20025;-69
2023/01/15 05:34:22;;;;;;;15.73;2.67;;;9.60;99.90;;;;;;5052067;28;20025;-69
2023/01/15 05:36:48;;;;;;;9.02;1.70;;;9.50;99.90;;;;;;5052053;28;20021;-69
2023/01/15 05:39:14;;;;;;;5.55;1.40;;;9.40;99.90;;;;;;5052141;28;20033;-68
2023/01/15 05:41:49;;;;;;;5.78;1.25;;;9.30;99.90;;;;;;5051507;28;20060;-69
2023/01/15 05:44:26;;;;;;;4.68;1.02;;;9.30;99.90;;;;;;5050509;28;20021;-68
2023/01/15 05:46:54;;;;;;;2.28;0.80;;;9.30;99.90;;;;;;5051159;28;20086;-69
2023/01/15 05:49:23;;;;;;;4.40;1.58;;;9.30;99.90;;;;;;5051937;28;20021;-69
2023/01/15 05:51:50;;;;;;;6.90;0.85;;;9.20;99.90;;;;;;5051989;28;20029;-69
2023/01/15 05:54:21;;;;;;;7.80;1.55;;;9.20;99.90;;;;;;5051827;28;20036;-68
2023/01/15 05:56:47;;;;;;;9.98;1.25;;;9.20;99.90;;;;;;5050514;28;20474;-69
2023/01/15 05:59:15;;;;;;;8.35;1.00;;;9.20;99.90;;;;;;5051830;28;20029;-69
2023/01/15 06:01:40;;;;;;;5.65;1.35;;;9.10;99.90;;;;;;5051805;28;20147;-69
2023/01/15 06:04:06;;;;;;;9.23;1.60;;;9.10;99.90;;;;;;5051312;28;20053;-69
2023/01/15 06:06:34;;;;;;;3.08;0.85;;;9.10;99.90;;;;;;5051527;28;20029;-69
2023/01/15 06:09:00;;;;;;;8.55;1.05;;;9.00;99.90;;;;;;5051665;28;20036;-69
2023/01/15 06:11:26;;;;;;;2.55;0.95;;;9.00;99.90;;;;;;5050383;28;20021;-69
2023/01/15 06:13:51;;;;;;;6.07;1.15;;;9.00;99.90;;;;;;5051468;28;20040;-69
2023/01/15 06:16:17;;;;;;;5.57;1.77;;;8.90;99.90;;;;;;5051373;28;20063;-69
2023/01/15 06:18:44;;;;;;;4.60;1.27;;;8.90;99.90;;;;;;5051411;28;20025;-69
2023/01/15 06:21:11;;;;;;;4.82;1.25;;;8.90;99.90;;;;;;5051667;28;20037;-69
2023/01/15 06:23:37;;;;;;;3.90;1.10;;;8.90;99.90;;;;;;5051273;28;20474;-68
2023/01/15 06:26:06;;;;;;;8.95;0.90;;;9.00;99.90;;;;;;5051240;28;20039;-69
2023/01/15 06:28:32;;;;;;;25.88;1.98;;;9.20;99.90;;;;;;5051200;28;20033;-69
2023/01/15 06:30:58;;;;;;;10.85;1.45;;;9.30;99.90;;;;;;5051281;28;20021;-69
2023/01/15 06:33:24;;;;;;;8.88;1.38;;;9.40;99.90;;;;;;5051358;28;20032;-69
2023/01/15 06:35:51;;;;;;;6.43;1.02;;;9.50;99.90;;;;;;5051218;28;20021;-70
2023/01/15 06:38:17;;;;;;;9.25;1.25;;;9.50;99.90;;;;;;5051240;28;20031;-69
2023/01/15 06:40:43;;;;;;;10.40;1.38;;;9.60;99.90;;;;;;5051617;28;20024;-70
2023/01/15 06:48:38;;;;;;;9.07;1.52;;;9.90;99.90;;;;;;5051285;28;20090;-70
2023/01/15 06:51:04;;;;;;;8.48;2.40;;;9.90;99.90;;;;;;5051102;28;20100;-68
2023/01/15 06:53:29;;;;;;;12.15;1.40;;;9.90;99.90;;;;;;5051139;28;20040;-69
2023/01/15 06:55:55;;;;;;;8.95;1.90;;;9.90;99.90;;;;;;5051060;28;20025;-68
2023/01/15 06:58:21;;;;;;;16.75;3.20;;;9.90;99.90;;;;;;5051052;28;20036;-68
2023/01/15 07:00:53;;;;;;;9.27;1.38;;;9.90;99.90;;;;;;5052142;28;20431;-68
2023/01/15 07:03:19;;;;;;;8.05;1.17;;;9.90;99.90;;;;;;5055657;28;20033;-70
2023/01/15 07:05:45;;;;;;;13.30;1.75;;;9.80;99.90;;;;;;5050607;28;20028;-70
2023/01/15 07:08:11;;;;;;;13.20;2.30;;;9.80;99.90;;;;;;5059531;28;20125;-67
2023/01/15 07:10:36;;;;;;;7.35;1.38;;;9.80;99.90;;;;;;5069536;28;20017;-68
2023/01/15 07:13:02;;;;;;;10.90;1.58;;;9.80;99.90;;;;;;5063333;28;20408;-68
2023/01/15 07:15:29;;;;;;;14.75;2.72;;;9.90;99.90;;;;;;5063816;28;20433;-68
2023/01/15 07:17:56;;;;;;;15.07;2.45;;;9.90;99.90;;;;;;5069847;28;20037;-68
2023/01/15 07:20:22;;;;;;;9.98;1.30;;;9.90;99.90;;;;;;5070815;28;20020;-68
2023/01/15 07:22:49;;;;;;;11.77;2.72;;;9.90;99.90;;;;;;5071152;28;20409;-68
2023/01/15 07:25:16;;;;;;;17.98;2.08;;;10.20;99.90;;;;;;5070910;28;20081;-69
2023/01/15 07:27:41;;;;;;;9.30;1.55;;;10.30;99.90;;;;;;5070445;28;20041;-69
2023/01/15 07:30:08;;;;;;;13.13;2.47;;;10.20;99.90;;;;;;5070301;28;20112;-67
2023/01/15 07:32:34;;;;;;;17.50;3.15;;;10.20;99.90;;;;;;5050432;28;20036;-68
2023/01/15 07:34:59;;;;;;;22.08;1.85;;;10.20;99.90;;;;;;5050883;28;20024;-68
2023/01/15 07:37:25;;;;;;;8.73;2.10;;;10.20;99.90;;;;;;5050643;28;20025;-67
2023/01/15 07:39:51;;;;;;;8.45;2.05;;;10.20;99.90;;;;;;5064614;28;20438;-69
2023/01/15 07:50:28;;;;;;;8.10;1.50;;;10.20;99.90;;;;;;5070765;28;20028;-70
2023/01/15 07:52:54;;;;;;;6.80;1.92;;;10.10;99.90;;;;;;5062887;28;20025;-68
2023/01/15 07:55:21;;;;;;;6.90;1.25;;;10.10;99.90;;;;;;5058781;28;20123;-69
2023/01/15 07:57:47;;;;;;;8.25;1.40;;;10.10;99.90;;;;;;5073741;28;20017;-70
2023/01/15 08:00:18;;;;;;;20.98;2.20;;;10.10;99.90;;;;;;5073841;28;20024;-71
2023/01/15 08:02:44;;;;;;;13.75;2.22;;;10.00;99.90;;;;;;5073987;28;20025;-70
2023/01/15 08:05:11;;;;;;;2.90;2.08;;;10.10;99.90;;;;;;5073717;28;20060;-69
2023/01/15 08:07:41;;;;;;;8.27;1.73;;;10.10;99.90;;;;;;5073596;28;20087;-70
2023/01/15 08:10:11;;;;;;;5.95;1.10;;;10.10;99.90;;;;;;5072630;28;20031;-70
2023/01/15 08:15:21;;;;;;;10.80;2.35;;;10.10;99.90;;;;;;5073446;28;20056;-69
2023/01/15 08:17:49;;;;;;;9.25;2.05;;;10.10;99.90;;;;;;5073707;28;20021;-71
2023/01/15 08:20:21;;;;;;;15.18;1.90;;;10.10;99.90;;;;;;5073412;28;20102;-69
2023/01/15 08:22:48;;;;;;;10.25;2.20;;;10.20;99.90;;;;;;5073786;28;20072;-69
2023/01/15 08:25:20;;;;;;;8.85;1.70;;;10.20;99.90;;;;;;5073775;28;20559;-71
2023/01/15 08:27:46;;;;;;;8.63;1.58;;;10.20;99.90;;;;;;5073669;28;20047;-69
2023/01/15 08:30:24;;;;;;;10.35;2.33;;;10.20;99.90;;;;;;5073236;28;20103;-70
2023/01/15 08:32:50;;;;;;;10.45;1.63;;;10.30;99.90;;;;;;5073636;28;20037;-70
2023/01/15 08:35:16;;;;;;;8.65;2.20;;;10.30;99.90;;;;;;5073708;28;20066;-70
2023/01/15 08:37:42;;;;;;;9.80;1.77;;;10.40;99.90;;;;;;5073579;28;20028;-70
2023/01/15 08:40:09;;;;;;;9.32;2.25;;;10.50;99.90;;;;;;5073491;28;20020;-70
2023/01/15 08:42:35;;;;;;;12.30;1.88;;;10.60;99.90;;;;;;5072277;28;20432;-70
2023/01/15 08:45:01;;;;;;;9.90;2.15;;;10.70;99.90;;;;;;5073458;28;20017;-71
2023/01/15 08:47:26;;;;;;;7.80;1.55;;;10.60;99.90;;;;;;5075440;28;20054;-71
2023/01/15 08:49:52;;;;;;;14.63;2.53;;;10.70;99.90;;;;;;5075895;28;20029;-71
2023/01/15 08:52:18;;;;;;;4.38;1.23;;;10.70;99.90;;;;;;5073110;28;20119;-71
2023/01/15 08:54:44;;;;;;;12.02;1.75;;;10.70;99.90;;;;;;5070805;28;20625;-70
2023/01/15 08:57:11;;;;;;;6.82;1.75;;;10.70;99.90;;;;;;5070921;28;20447;-69
2023/01/15 08:59:37;;;;;;;13.57;2.40;;;10.60;99.90;;;;;;5063959;28;20028;-71
2023/01/15 09:02:02;;;;;;;10.85;2.20;;;10.60;99.90;;;;;;5052492;28;20052;-68
2023/01/15 09:04:28;;;;;;;9.32;2.25;;;10.50;99.90;;;;;;5042589;28;20122;-71
2023/01/15 09:06:54;;;;;;;11.13;1.63;;;10.50;99.90;;;;;;5052612;28;20016;-71
2023/01/15 09:09:20;;;;;;;21.40;3.25;;;10.50;99.90;;;;;;5052616;28;20080;-71
2023/01/15 09:11:46;;;;;;;15.43;2.22;;;10.50;99.90;;;;;;5053629;28;20029;-71
2023/01/15 09:14:14;;;;;;;12.05;2.25;;;10.40;99.90;;;;;;5052417;28;20041;-71
2023/01/15 09:16:40;;;;;;;7.28;2.95;;;10.50;99.90;;;;;;5050981;28;20509;-71
2023/01/15 09:19:07;;;;;;;8.15;1.95;;;10.50;99.90;;;;;;5051247;28;20112;-71
2023/01/15 09:21:33;;;;;;;13.02;2.30;;;10.60;99.90;;;;;;5052758;28;20044;-69
2023/01/15 09:23:59;;;;;;;13.55;2.47;;;10.70;99.90;;;;;;5052903;28;20515;-70
2023/01/15 09:26:42;;;;;;;18.80;4.25;;;10.60;99.90;;;;;;5071415;28;20029;-71
2023/01/15 09:29:09;;;;;;;15.55;2.75;;;10.70;99.90;;;;;;5074655;28;20032;-74
2023/01/15 09:31:35;;;;;;;8.75;2.08;;;10.70;99.90;;;;;;5077233;28;20032;-71
2023/01/15 09:34:01;;;;;;;11.35;1.85;;;10.80;99.90;;;;;;5075491;28;20389;-70
2023/01/15 09:36:28;;;;;;;4.68;1.80;;;10.90;99.90;;;;;;5070905;28;20470;-70
2023/01/15 09:38:55;;;;;;;10.75;2.10;;;10.90;99.90;;;;;;5072241;28;20020;-71
2023/01/15 09:44:31;;;;;;;8.68;1.60;;;10.80;99.90;;;;;;5057972;28;20067;-71
2023/01/15 09:47:09;;;;;;;9.27;2.78;;;10.80;99.90;;;;;;5055022;28;20029;-71
2023/01/15 09:50:09;;;;;;;10.30;2.55;;;10.80;99.90;;;;;;5056534;28;20057;-70
2023/01/15 09:53:00;;;;;;;11.23;2.38;;;10.80;99.90;;;;;;5053313;28;20053;-72
2023/01/15 09:55:35;;;;;;;11.50;1.60;;;10.70;99.90;;;;;;5055486;28;20409;-72
2023/01/15 09:58:04;;;;;;;11.70;1.60;;;10.70;99.90;;;;;;5051773;28;20068;-72
2023/01/15 10:00:44;;;;;;;8.23;1.98;;;10.70;99.90;;;;;;5056067;28;20031;-71
2023/01/15 10:03:32;;;;;;;11.20;1.88;;;10.80;99.90;;;;;;5068795;28;20058;-72
2023/01/15 10:06:05;;;;;;;13.30;2.33;;;10.80;99.90;;;;;;5068591;28;20021;-71
2023/01/15 10:08:41;;;;;;;11.02;1.95;;;10.80;99.90;;;;;;5069383;28;20037;-72
2023/01/15 10:11:19;;;;;;;12.35;2.90;;;10.80;99.90;;;;;;5071520;28;20023;-71
2023/01/15 10:14:07;;;;;;;9.82;2.78;;;10.80;99.90;;;;;;5057658;28;20044;-72
2023/01/15 10:16:33;;;;;;;15.25;2.25;;;10.90;99.90;;;;;;5067657;28;20060;-72
2023/01/15 10:19:03;;;;;;;15.93;2.72;;;10.90;99.90;;;;;;5071355;28;20496;-72
2023/01/15 10:22:08;;;;;;;11.30;2.15;;;10.90;99.90;;;;;;5071323;28;20021;-70
2023/01/15 10:24:42;;;;;;;9.23;1.65;;;11.00;99.90;;;;;;5071301;28;20029;-72
2023/01/15 10:27:20;;;;;;;16.95;2.30;;;10.90;99.90;;;;;;5069998;28;20645;-72
2023/01/15 10:30:11;;;;;;;4.93;1.40;;;10.90;99.90;;;;;;5071426;28;20104;-73
2023/01/15 10:32:53;;;;;;;9.18;1.85;;;10.90;99.90;;;;;;5071198;28;20425;-72
2023/01/15 10:35:24;;;;;;;12.05;2.08;;;11.00;99.90;;;;;;5071597;28;20031;-72
2023/01/15 10:37:58;;;;;;;7.50;2.03;;;10.90;99.90;;;;;;5071100;28;20108;-71
2023/01/15 10:40:57;;;;;;;6.80;1.48;;;10.80;99.90;;;;;;5071325;28;20028;-72
2023/01/15 10:43:38;;;;;;;7.97;1.90;;;10.80;99.90;;;;;;5071176;28;20016;-72
2023/01/15 10:46:32;;;;;;;11.50;2.67;;;10.70;99.90;;;;;;5071088;28;20473;-72
2023/01/15 10:49:14;;;;;;;15.48;1.50;;;10.60;99.90;;;;;;5070767;28;20095;-72
2023/01/15 10:51:51;;;;;;;;;;;10.60;99.90;;;;;;5071794;28;20020;-72
2023/01/15 10:54:26;;;;;;;8.52;1.52;;;10.70;99.90;;;;;;5071267;28;20349;-72
2023/01/15 10:57:00;;;;;;;14.93;2.25;;;10.70;99.90;;;;;;5071008;28;20024;-71
2023/01/15 10:59:46;;;;;;;10.48;1.98;;;10.70;99.90;;;;;;5071029;28;20496;-72
2023/01/15 11:02:31;;;;;;;12.20;2.42;;;10.70;99.90;;;;;;5071194;28;20031;-72
2023/01/15 11:04:57;;;;;;;12.95;2.13;;;10.80;99.90;;;;;;5070881;28;20031;-72
2023/01/15 11:07:45;;;;;;;10.48;2.53;;;10.80;99.90;;;;;;5070880;28;20033;-72
2023/01/15 11:10:17;;;;;;;15.35;2.05;;;10.80;99.90;;;;;;5069497;28;20027;-72
2023/01/15 11:21:20;;;;;;;21.13;2.08;;;11.10;99.90;;;;;;5071172;28;20394;-71
2023/01/15 11:23:47;;;;;;;14.15;3.55;;;11.00;99.90;;;;;;5070838;28;20078;-72
2023/01/15 11:26:25;;;;;;;6.30;1.52;;;11.00;99.90;;;;;;5070941;28;20032;-72
2023/01/15 11:28:52;;;;;;;18.17;2.92;;;10.90;99.90;;;;;;5074888;28;20024;-72
2023/01/15 11:31:18;;;;;;;8.77;1.40;;;10.90;99.90;;;;;;5074785;28;20035;-72
2023/01/15 11:34:02;;;;;;;7.50;1.83;;;10.90;99.90;;;;;;5074740;28;20024;-71
2023/01/15 11:36:29;;;;;;;9.98;1.95;;;11.00;99.90;;;;;;5074447;28;20021;-72
2023/01/15 11:38:55;;;;;;;9.90;1.30;;;11.00;99.90;;;;;;5074134;28;20082;-71
2023/01/15 11:52:43;;;;;;;6.65;1.38;;;10.90;99.90;;;;;;5074530;28;20055;-72
2023/01/15 11:55:16;;;;;;;5.70;2.40;;;10.90;99.90;;;;;;5074110;28;20056;-72
2023/01/15 11:57:43;;;;;;;10.93;1.90;;;10.90;99.90;;;;;;5072733;28;20072;-71
2023/01/15 12:00:20;;;;;;;10.18;1.77;;;10.90;99.90;;;;;;5074166;28;20103;-72
2023/01/15 12:02:49;;;;;;;10.40;1.88;;;10.80;99.90;;;;;;5074035;28;20024;-72
2023/01/15 12:05:21;;;;;;;14.55;2.63;;;10.80;99.90;;;;;;5073997;28;20024;-72
2023/01/15 12:07:51;;;;;;;12.87;2.13;;;10.80;99.90;;;;;;5073730;28;20024;-72
2023/01/15 12:11:10;;;;;;;11.55;1.40;;;10.70;99.90;;;;;;5073992;28;20029;-72
2023/01/15 12:13:22;;;;;;;11.15;1.50;;;10.60;99.90;;;;;;5060670;28;20095;-69
2023/01/15 12:16:03;;;;;;;10.30;1.83;;;10.60;99.90;;;;;;5064851;28;20527;-70
2023/01/15 12:18:47;;;;;;;14.63;1.80;;;10.60;99.90;;;;;;5073714;28;20021;-70
2023/01/15 12:21:33;;;;;;;11.60;2.47;;;10.60;99.90;;;;;;5073363;28;20032;-70
2023/01/15 12:24:27;;;;;;;12.25;2.22;;;10.80;99.90;;;;;;5073643;28;20024;-69
2023/01/15 12:27:23;;;;;;;17.83;4.03;;;11.20;99.90;;;;;;5073519;28;20020;-70
2023/01/15 12:29:59;;;;;;;8.02;1.67;;;11.40;99.90;;;;;;5073758;28;20081;-69
2023/01/15 12:32:33;;;;;;;13.82;2.25;;;11.10;99.90;;;;;;5073684;28;20025;-68
2023/01/15 12:35:12;;;;;;;8.30;1.38;;;11.00;99.90;;;;;;5073863;28;20016;-69
2023/01/15 12:37:51;;;;;;;4.25;1.08;;;10.80;99.90;;;;;;5072888;28;20025;-68
2023/01/15 12:40:23;;;;;;;16.90;1.80;;;10.90;99.90;;;;;;5074970;28;20028;-69
2023/01/15 12:45:48;;;;;;;5.38;1.80;;;12.00;99.90;;;;;;5075924;28;20651;-69
2023/01/15 12:48:22;;;;;;;4.25;1.23;;;12.30;99.90;;;;;;5073600;28;20174;-70
2023/01/15 12:50:55;;;;;;;6.30;1.25;;;12.10;99.90;;;;;;5073477;28;20096;-70
2023/01/15 12:53:44;;;;;;;9.55;1.80;;;11.40;99.90;;;;;;5073168;28;20032;-70
2023/01/15 12:56:25;;;;;;;10.80;1.73;;;11.30;99.90;;;;;;5073003;28;20021;-69
2023/01/15 12:59:15;;;;;;;7.43;1.50;;;11.10;99.90;;;;;;5073171;28;20020;-70
2023/01/15 13:02:01;;;;;;;5.57;1.23;;;10.90;99.90;;;;;;5073234;28;20090;-69
2023/01/15 13:04:47;;;;;;;10.05;1.77;;;11.10;99.90;;;;;;5073420;28;20027;-69
2023/01/15 13:07:45;;;;;;;6.00;1.70;;;11.10;99.90;;;;;;5072492;28;20072;-69
2023/01/15 13:10:40;;;;;;;9.98;2.13;;;11.20;99.90;;;;;;5029224;28;20049;-69
2023/01/15 13:13:19;;;;;;;13.20;1.58;;;11.70;99.90;;;;;;5049512;28;20039;-68
2023/01/15 13:15:59;;;;;;;6.75;1.30;;;11.50;99.90;;;;;;5070554;28;20040;-69
2023/01/15 13:18:52;;;;;;;7.30;1.73;;;11.00;99.90;;;;;;5069177;28;20635;-69
2023/01/15 13:21:20;;;;;;;7.93;1.58;;;10.70;99.90;;;;;;5072339;28;20023;-69
2023/01/15 13:24:22;;;;;;;10.30;2.00;;;10.60;99.90;;;;;;5071760;28;20542;-68
2023/01/15 13:26:48;;;;;;;9.82;1.80;;;10.50;99.90;;;;;;5014630;28;20085;-68
2023/01/15 13:29:32;;;;;;;8.13;1.92;;;10.60;99.90;;;;;;5070178;28;20032;-70
2023/01/15 13:32:22;;;;;;;7.00;1.67;;;10.30;99.90;;;;;;5069769;28;20028;-70
2023/01/15 13:34:54;;;;;;;5.55;1.05;;;9.40;99.90;;;;;;5069868;28;20044;-71
2023/01/15 13:37:31;;;;;;;5.90;1.25;;;9.50;99.90;;;;;;5072182;28;20099;-71
2023/01/15 13:40:20;;;;;;;10.95;2.35;;;9.80;99.90;;;;;;5070923;28;20060;-70
2023/01/15 13:42:48;;;;;;;13.02;1.95;;;10.20;99.90;;;;;;5058587;28;20032;-70
2023/01/15 13:45:13;;;;;;;13.43;2.03;;;10.30;99.90;;;;;;5071783;28;20017;-70
2023/01/15 13:47:45;;;;;;;22.30;2.90;;;10.30;99.90;;;;;;5071741;28;20077;-70
2023/01/15 13:50:39;;;;;;;13.45;2.63;;;10.50;99.90;;;;;;5071392;28;20031;-71
2023/01/15 13:53:18;;;;;;;12.35;2.00;;;10.80;99.90;;;;;;5070586;28;20032;-69
2023/01/15 13:55:52;;;;;;;9.60;1.52;;;10.90;99.90;;;;;;5071962;28;20021;-69
2023/01/15 13:58:41;;;;;;;11.65;1.80;;;10.90;99.90;;;;;;5069943;28;20028;-69
2023/01/15 14:01:21;;;;;;;12.90;1.67;;;10.90;99.90;;;;;;5071085;28;20052;-68